Data for 12/18/2009

Time Sea-Level Adjusted Pressure Absolute Pressure Temperature Relative Humidity Dew Point   
(mb) (inHg) (mb) (inHg) (C) (F) (%) (C) (F)
00:05 1026 30.3 855 25.25 -1 30.2 64 -7 19.4
00:10 1025 30.27 855 25.25 -1 30.3 64 -7 19.5
00:15 1025 30.27 855 25.25 -1 30.1 64 -7 19.3
00:20 1025 30.27 855 25.25 -1.3 29.7 65 -7 19.4
00:25 1025 30.27 855 25.25 -1.9 28.7 66 -7.3 18.9
00:30 1025 30.27 855 25.25 -1.9 28.5 67 -7.3 18.9
00:35 1025 30.27 855 25.25 -1.8 28.8 66 -7.3 18.9
00:40 1025 30.27 855 25.25 -1.7 29 66 -7.2 19
00:45 1025 30.27 855 25.25 -1.6 29.2 65 -7.3 18.8
00:50 1025 30.27 855 25.25 -2.1 28.3 68 -7.1 19.1
00:55 1025 30.27 854 25.22 -2.2 28.1 67 -7.5 18.5
01:00 1025 30.27 855 25.25 -2.1 28.1 67 -7.5 18.5
01:05 1025 30.27 855 25.25 -2.5 27.5 70 -7.2 19
01:10 1025 30.27 855 25.25 -2.5 27.5 69 -7.4 18.6
01:15 1025 30.27 855 25.25 -2 28.4 67 -7.3 18.8
01:20 1025 30.27 855 25.25 -2.3 27.9 71 -6.8 19.8
01:25 1025 30.27 855 25.25 -2.6 27.3 71 -7.2 19
01:30 1025 30.27 855 25.25 -2.1 28.2 68 -7.2 19
01:35 1025 30.27 855 25.25 -1.9 28.5 70 -6.8 19.8
01:40 1025 30.27 855 25.25 -2.5 27.5 72 -7 19.5
01:45 1025 30.27 855 25.25 -2.7 27.1 71 -7.3 18.9
01:50 1025 30.27 855 25.25 -2.6 27.4 72 -6.9 19.5
01:55 1025 30.27 855 25.25 -2.7 27.2 71 -7.2 19.1
02:00 1025 30.27 855 25.25 -2.9 26.8 73 -7.1 19.2
02:05 1025 30.27 855 25.25 -2.7 27.1 71 -7.2 19.1
02:10 1025 30.27 855 25.25 -2.7 27.1 72 -7.1 19.1
02:15 1025 30.27 855 25.25 -3.1 26.4 73 -7.2 19
02:20 1025 30.27 855 25.25 -2.9 26.7 72 -7.2 19
02:25 1025 30.27 855 25.25 -2.8 26.9 72 -7.3 18.9
02:30 1025 30.27 855 25.25 -3.2 26.2 74 -7.3 18.9
02:35 1025 30.27 855 25.25 -3.7 25.3 75 -7.5 18.5
02:40 1025 30.27 855 25.25 -3.6 25.5 77 -7.1 19.2
02:45 1025 30.27 855 25.25 -3.4 26 77 -6.9 19.6
02:50 1025 30.27 855 25.25 -3.6 25.6 76 -7.2 19
02:55 1025 30.27 855 25.25 -4 24.8 77 -7.5 18.5
03:00 1025 30.27 854 25.22 -4.3 24.2 78 -7.7 18.2
03:05 1025 30.27 854 25.22 -4.3 24.3 78 -7.5 18.4
03:10 1025 30.27 854 25.22 -4.3 24.2 78 -7.6 18.3
03:15 1025 30.27 854 25.22 -4.1 24.6 77 -7.6 18.3
03:20 1025 30.27 854 25.22 -3.9 25.1 75 -7.7 18.2
03:25 1025 30.27 854 25.22 -4.5 23.9 76 -8.1 17.4
03:30 1025 30.27 854 25.22 -5.3 22.5 80 -8.1 17.3
03:35 1025 30.27 854 25.22 -5.3 22.5 81 -8.1 17.5
03:40 1025 30.27 854 25.22 -5 22.9 79 -8.1 17.4
03:45 1025 30.27 854 25.22 -4.9 23.3 78 -8.2 17.3
03:50 1025 30.27 854 25.22 -4.6 23.7 77 -8 17.6
03:55 1025 30.27 854 25.22 -4.6 23.7 77 -8.1 17.5
04:00 1025 30.27 854 25.22 -4.4 24 78 -7.7 18.1
04:05 1025 30.27 854 25.22 -4.3 24.2 76 -7.9 17.8
04:10 1025 30.27 854 25.22 -4.8 23.4 79 -7.9 17.8
04:15 1025 30.27 854 25.22 -5.1 22.9 81 -7.9 17.9
04:20 1025 30.27 854 25.22 -4.5 23.8 77 -7.9 17.8
04:25 1025 30.27 854 25.22 -4.4 24.1 78 -7.7 18.1
04:30 1025 30.27 854 25.22 -4.5 23.8 77 -7.9 17.7
04:35 1025 30.27 854 25.22 -4.9 23.2 80 -7.8 17.9
04:40 1025 30.27 854 25.22 -4.9 23.2 80 -7.9 17.8
04:45 1025 30.27 854 25.22 -5.2 22.7 81 -7.9 17.8
04:50 1025 30.27 854 25.22 -5.1 22.9 80 -7.9 17.7
04:55 1025 30.27 854 25.22 -5.1 22.9 80 -8 17.6
05:00 1025 30.27 854 25.22 -5.3 22.5 81 -8 17.5
05:05 1025 30.27 854 25.22 -5.2 22.6 82 -7.9 17.8
05:10 1025 30.27 854 25.22 -5 23 81 -7.8 18
05:15 1025 30.27 854 25.22 -5.1 22.9 81 -7.9 17.8
05:20 1025 30.27 854 25.22 -5.3 22.4 82 -8 17.6
05:25 1025 30.27 854 25.22 -5.4 22.4 81 -8.1 17.4
05:30 1025 30.27 854 25.22 -5.6 21.9 82 -8.2 17.2
05:35 1025 30.27 854 25.22 -5.8 21.6 83 -8.2 17.2
05:40 1025 30.27 854 25.22 -5.6 21.9 82 -8.2 17.3
05:45 1025 30.27 854 25.22 -5.1 22.9 81 -7.9 17.8
05:50 1025 30.27 854 25.22 -4.7 23.6 80 -7.7 18.2
05:55 1025 30.27 854 25.22 -4.5 23.9 79 -7.7 18.2
06:00 1025 30.27 854 25.22 -4.6 23.8 78 -7.8 18
06:05 1025 30.27 854 25.22 -4.4 24.1 77 -7.8 17.9
06:10 1025 30.27 854 25.22 -4.7 23.5 79 -7.9 17.8
06:15 1025 30.27 854 25.22 -5.1 22.8 77 -8.6 16.5
06:20 1025 30.27 854 25.22 -5.4 22.3 78 -8.6 16.6
06:25 1025 30.27 854 25.22 -5.9 21.5 81 -8.6 16.5
06:30 1025 30.27 854 25.22 -5.8 21.6 79 -8.8 16.1
06:35 1025 30.27 854 25.22 -5.5 22.2 77 -8.8 16.1
06:40 1025 30.27 854 25.22 -5.5 22.1 78 -8.7 16.3
06:45 1025 30.27 854 25.22 -5.7 21.8 79 -8.7 16.3
06:50 1025 30.27 854 25.22 -5.6 21.8 79 -8.7 16.4
06:55 1025 30.27 854 25.22 -5.4 22.4 78 -8.7 16.4
07:00 1025 30.27 854 25.22 -5.4 22.4 80 -8.3 17
07:05 1025 30.27 854 25.22 -5.3 22.4 75 -9 15.8
07:10 1025 30.27 854 25.22 -5.3 22.5 76 -9 15.9
07:15 1025 30.27 854 25.22 -5.5 22.1 75 -9.2 15.5
07:20 1025 30.27 855 25.25 -5.6 21.9 76 -9.3 15.3
07:25 1025 30.27 855 25.25 -5.7 21.7 74 -9.7 14.6
07:30 1025 30.27 855 25.25 -5.8 21.6 74 -9.7 14.6
07:35 1025 30.27 855 25.25 -5.9 21.5 75 -9.6 14.7
07:40 1025 30.27 855 25.25 -6.1 21.1 76 -9.6 14.7
07:45 1025 30.27 855 25.25 -6.6 20.2 77 -9.9 14.1
07:50 1025 30.27 855 25.25 -6.8 19.7 78 -10 14
07:55 1025 30.27 855 25.25 -7 19.3 79 -10.1 13.8
08:00 1025 30.27 855 25.25 -7.1 19.1 81 -9.9 14.2
08:05 1025 30.27 855 25.25 -7.1 19.3 80 -9.9 14.1
08:10 1025 30.27 855 25.25 -6.7 19.9 79 -9.8 14.3
08:15 1025 30.27 854 25.22 -6.6 20.2 81 -9.2 15.4
08:20 1025 30.27 854 25.22 -6.4 20.5 80 -9.3 15.3
08:25 1025 30.27 854 25.22 -6.2 20.9 81 -8.9 16
08:30 1025 30.27 854 25.22 -5.9 21.4 78 -9.2 15.5
08:35 1025 30.27 854 25.22 -5.7 21.7 78 -8.9 16
08:40 1025 30.27 854 25.22 -5.2 22.6 73 -9.3 15.2
08:45 1025 30.27 854 25.22 -5.4 22.3 76 -9 15.9
08:50 1025 30.27 854 25.22 -5.4 22.2 75 -9.2 15.5
08:55 1025 30.27 854 25.22 -5.4 22.3 74 -9.3 15.2
09:00 1025 30.27 854 25.22 -5.4 22.3 74 -9.3 15.2
09:05 1025 30.27 854 25.22 -5.4 22.2 75 -9.2 15.4
09:10 1025 30.27 854 25.22 -5.6 22 75 -9.3 15.3
09:15 1025 30.27 854 25.22 -5.6 21.9 77 -9 15.8
09:20 1025 30.27 854 25.22 -5.3 22.5 75 -9.1 15.6
09:25 1025 30.27 854 25.22 -4.9 23.2 71 -9.4 15.1
09:30 1025 30.27 854 25.22 -4.6 23.8 71 -9 15.8
09:35 1025 30.27 854 25.22 -4.7 23.5 73 -8.9 16
09:40 1025 30.27 854 25.22 -4.5 23.8 70 -9.2 15.5
09:45 1025 30.27 855 25.25 -4.2 24.5 72 -8.5 16.7
09:50 1025 30.27 855 25.25 -3.9 25.1 69 -8.7 16.3
09:55 1025 30.27 855 25.25 -3.7 25.3 70 -8.4 16.8
10:00 1025 30.27 855 25.25 -3.8 25.1 69 -8.6 16.5
10:05 1025 30.27 855 25.25 -3.4 25.9 69 -8.2 17.2
10:10 1025 30.27 855 25.25 -2.7 27.2 65 -8.3 17
10:15 1025 30.27 855 25.25 -2.1 28.2 64 -8.1 17.4
10:20 1025 30.27 855 25.25 -2 28.4 62 -8.3 17.1
10:25 1025 30.27 855 25.25 -2.6 27.4 64 -8.4 16.9
10:30 1025 30.27 855 25.25 -2.4 27.7 63 -8.5 16.8
10:35 1025 30.27 855 25.25 -2.6 27.4 61 -9.1 15.6
10:40 1025 30.27 855 25.25 -2.8 26.9 61 -9.4 15.1
10:45 1025 30.27 855 25.25 -2.6 27.3 60 -9.4 15
10:50 1025 30.27 855 25.25 -2.2 28.1 58 -9.3 15.3
10:55 1025 30.27 855 25.25 -2.1 28.2 59 -9.2 15.5
11:00 1025 30.27 855 25.25 -1.8 28.8 55 -9.7 14.5
11:05 1025 30.27 855 25.25 -1.6 29.1 56 -9.4 15.1
11:10 1025 30.27 854 25.22 -1.4 29.4 53 -9.8 14.3
11:15 1025 30.27 854 25.22 -1.4 29.4 55 -9.4 15
11:20 1025 30.27 854 25.22 -0.9 30.4 54 -9.1 15.7
11:25 1025 30.27 854 25.22 -1.2 29.8 57 -8.8 16.2
11:30 1025 30.27 854 25.22 -1.3 29.7 55 -9.2 15.5
11:35 1025 30.27 854 25.22 -0.8 30.5 52 -9.4 15
11:40 1025 30.27 854 25.22 -0.7 30.7 54 -8.9 16
11:45 1025 30.27 854 25.22 -0.4 31.3 53 -8.8 16.2
11:50 1025 30.27 854 25.22 -0.1 31.9 53 -8.6 16.5
11:55 1025 30.27 854 25.22 -0.5 31 53 -9 15.9
12:00 1025 30.27 854 25.22 -0.6 31 53 -8.9 15.9
12:05 1025 30.27 854 25.22 -0.4 31.2 53 -8.9 15.9
12:10 1025 30.27 854 25.22 -0.5 31.2 53 -8.9 15.9
12:15 1024 30.24 854 25.22 -0.2 31.7 52 -8.9 16.1
12:20 1024 30.24 854 25.22 0.4 32.7 50 -8.9 16
12:25 1024 30.24 854 25.22 0.6 33 50 -8.7 16.3
12:30 1024 30.24 853 25.19 0.4 32.8 52 -8.4 16.8
12:35 1024 30.24 853 25.19 0.6 33.1 51 -8.4 16.8
12:40 1024 30.24 853 25.19 0.8 33.4 50 -8.4 16.9
12:45 1024 30.24 853 25.19 0.6 33 52 -8.3 17.1
12:50 1024 30.24 853 25.19 0.3 32.5 53 -8.2 17.2
12:55 1024 30.24 853 25.19 0.4 32.7 51 -8.5 16.6
13:00 1024 30.24 853 25.19 0.7 33.3 50 -8.6 16.6
13:05 1024 30.24 853 25.19 1.3 34.3 48 -8.5 16.8
13:10 1024 30.24 853 25.19 1.2 34.2 48 -8.5 16.7
13:15 1024 30.24 853 25.19 1.3 34.3 48 -8.5 16.8
13:20 1024 30.24 853 25.19 1.5 34.7 49 -8.1 17.4
13:25 1024 30.24 853 25.19 1.3 34.4 51 -7.8 18
13:30 1024 30.24 853 25.19 0.3 32.5 56 -7.6 18.4
13:35 1024 30.24 853 25.19 -0.4 31.2 56 -8.2 17.2
13:40 1023 30.21 853 25.19 -0.3 31.4 54 -8.5 16.7
13:45 1023 30.21 853 25.19 -0.2 31.6 56 -8 17.7
13:50 1023 30.21 853 25.19 -0.6 31 57 -8.1 17.4
13:55 1023 30.21 853 25.19 -0.6 30.9 58 -7.9 17.8
14:00 1023 30.21 853 25.19 -1 30.2 58 -8.3 17
14:05 1023 30.21 853 25.19 -0.7 30.8 56 -8.3 17.1
14:10 1023 30.21 853 25.19 -0.6 30.9 56 -8.3 17
14:15 1023 30.21 853 25.19 -0.4 31.2 54 -8.6 16.6
14:20 1023 30.21 853 25.19 -0.3 31.5 55 -8.1 17.4
14:25 1023 30.21 853 25.19 -0.3 31.5 53 -8.6 16.5
14:30 1023 30.21 853 25.19 -0 32 53 -8.5 16.7
14:35 1023 30.21 853 25.19 0.1 32.2 52 -8.7 16.3
14:40 1023 30.21 853 25.19 0.4 32.8 49 -9 15.9
14:45 1023 30.21 853 25.19 0.7 33.2 49 -8.8 16.2
14:50 1024 30.24 853 25.19 1 33.8 48 -8.8 16.2
14:55 1024 30.24 853 25.19 1.1 33.9 47 -9.1 15.7
15:00 1024 30.24 853 25.19 0.6 33.1 49 -8.9 16
15:05 1024 30.24 853 25.19 0.1 32.1 50 -9.2 15.4
15:10 1024 30.24 853 25.19 0 32 52 -8.7 16.4
15:15 1024 30.24 853 25.19 0.4 32.7 49 -9 15.8
15:20 1024 30.24 853 25.19 0.7 33.3 50 -8.6 16.5
15:25 1024 30.24 853 25.19 1 33.8 51 -8.2 17.3
15:30 1024 30.24 853 25.19 0.9 33.6 53 -7.6 18.4
15:35 1024 30.24 853 25.19 0.7 33.3 53 -7.8 17.9
15:40 1024 30.24 853 25.19 0.9 33.6 53 -7.5 18.4
15:45 1024 30.24 853 25.19 1 33.7 50 -8.3 17
15:50 1024 30.24 853 25.19 1 33.8 50 -8.2 17.3
15:55 1024 30.24 853 25.19 0.9 33.6 51 -8 17.6
16:00 1024 30.24 853 25.19 0.8 33.5 52 -7.9 17.8
16:05 1024 30.24 853 25.19 0.6 33 54 -7.7 18.2
16:10 1024 30.24 853 25.19 0.3 32.6 54 -8 17.6
16:15 1024 30.24 853 25.19 -0 31.9 51 -9 15.8
16:20 1024 30.24 853 25.19 0.2 32.3 50 -9.1 15.6
16:25 1024 30.24 853 25.19 0.4 32.8 49 -9 15.8
16:30 1024 30.24 853 25.19 0.8 33.5 49 -8.8 16.1
16:35 1024 30.24 853 25.19 0.9 33.6 50 -8.3 17
16:40 1024 30.24 853 25.19 1 33.7 52 -7.7 18.1
16:45 1024 30.24 853 25.19 0.7 33.3 54 -7.4 18.6
16:50 1024 30.24 853 25.19 0.4 32.7 54 -7.8 17.9
16:55 1024 30.24 853 25.19 0.3 32.6 50 -9 15.8
17:00 1024 30.24 853 25.19 1 33.8 52 -7.7 18.1
17:05 1024 30.24 853 25.19 1.2 34.1 53 -7.5 18.5
17:10 1024 30.24 853 25.19 1.1 34 56 -6.8 19.7
17:15 1023 30.21 853 25.19 0.8 33.4 57 -6.9 19.5
17:20 1023 30.21 853 25.19 0.1 32.3 55 -7.8 17.9
17:25 1023 30.21 853 25.19 0.1 32.1 54 -8.1 17.4
17:30 1023 30.21 853 25.19 0.3 32.5 52 -8.4 17
17:35 1023 30.21 853 25.19 0.3 32.5 55 -7.7 18.1
17:40 1023 30.21 853 25.19 0.1 32.1 52 -8.6 16.5
17:45 1023 30.21 852 25.16 -0.2 31.6 52 -8.9 16
17:50 1023 30.21 852 25.16 -0.3 31.4 56 -8.1 17.3
17:55 1023 30.21 852 25.16 -0.3 31.4 53 -8.8 16.2
18:00 1023 30.21 852 25.16 -0.1 31.9 54 -8.3 17
18:05 1023 30.21 852 25.16 0.4 32.7 54 -7.8 17.9
18:10 1023 30.21 852 25.16 0.5 32.9 50 -8.7 16.3
18:15 1023 30.21 852 25.16 0.6 33 47 -9.6 14.7
18:20 1023 30.21 852 25.16 1 33.8 48 -8.9 16
18:25 1023 30.21 852 25.16 1.3 34.3 50 -8.1 17.5
18:30 1023 30.21 852 25.16 0.8 33.4 50 -8.6 16.6
18:35 1023 30.21 852 25.16 0.5 32.9 52 -8.3 17
18:40 1023 30.21 852 25.16 0.4 32.8 47 -9.5 14.9
18:45 1023 30.21 852 25.16 0.7 33.2 49 -8.9 16
18:50 1023 30.21 852 25.16 0.7 33.3 52 -8.1 17.4
18:55 1023 30.21 852 25.16 0.7 33.3 49 -8.8 16.1
19:00 1023 30.21 852 25.16 0.7 33.2 52 -8.2 17.3
19:05 1023 30.21 852 25.16 0.7 33.2 51 -8.4 16.8
19:10 1023 30.21 852 25.16 0.9 33.6 51 -8 17.6
19:15 1022 30.18 852 25.16 0.9 33.5 51 -8.1 17.3
19:20 1022 30.18 852 25.16 0.9 33.6 51 -8.2 17.2
19:25 1022 30.18 851 25.13 0.5 32.9 51 -8.5 16.7
19:30 1022 30.18 851 25.13 0.5 33 52 -8.3 17
19:35 1022 30.18 851 25.13 0.5 32.9 51 -8.5 16.7
19:40 1022 30.18 851 25.13 0.7 33.3 50 -8.4 16.8
19:45 1022 30.18 851 25.13 0.7 33.3 51 -8.3 17
19:50 1022 30.18 851 25.13 0.4 32.7 56 -7.5 18.5
19:55 1022 30.18 851 25.13 0.3 32.5 54 -8.1 17.5
20:00 1022 30.18 851 25.13 0.2 32.4 54 -8.1 17.5
20:05 1022 30.18 851 25.13 0.1 32.1 55 -7.9 17.8
20:10 1022 30.18 851 25.13 0.2 32.3 52 -8.5 16.7
20:15 1022 30.18 851 25.13 0.5 32.9 51 -8.4 16.9
20:20 1022 30.18 851 25.13 0.8 33.5 53 -7.7 18.1
20:25 1022 30.18 851 25.13 0.9 33.6 54 -7.3 18.9
20:30 1022 30.18 851 25.13 0.7 33.3 58 -6.6 20.1
20:35 1022 30.18 851 25.13 0.4 32.8 57 -7.2 19.1
20:40 1022 30.18 851 25.13 0.3 32.6 59 -6.9 19.7
20:45 1022 30.18 852 25.16 0.1 32.1 62 -6.4 20.4
20:50 1022 30.18 852 25.16 -0.5 31.1 62 -6.9 19.6
20:55 1022 30.18 852 25.16 -0.7 30.7 60 -7.5 18.5
21:00 1022 30.18 852 25.16 -0.7 30.8 60 -7.5 18.5
21:05 1022 30.18 852 25.16 -0.9 30.4 61 -7.4 18.7
21:10 1022 30.18 852 25.16 -1 30.1 62 -7.4 18.6
21:15 1023 30.21 852 25.16 -1.2 29.8 63 -7.4 18.7
21:20 1023 30.21 852 25.16 -1.3 29.6 61 -7.9 17.8
21:25 1023 30.21 852 25.16 -1.8 28.8 63 -7.9 17.8
21:30 1022 30.18 852 25.16 -2.1 28.2 64 -8.1 17.5
21:35 1023 30.21 852 25.16 -2.4 27.7 64 -8.4 16.9
21:40 1022 30.18 852 25.16 -2.4 27.7 63 -8.5 16.7
21:45 1022 30.18 852 25.16 -2 28.5 61 -8.5 16.7
21:50 1023 30.21 852 25.16 -1.9 28.6 62 -8.2 17.3
21:55 1023 30.21 852 25.16 -1.8 28.7 61 -8.3 17
22:00 1023 30.21 852 25.16 -1.3 29.6 59 -8.3 17.1
22:05 1023 30.21 852 25.16 -1.1 30 60 -7.9 17.9
22:10 1023 30.21 852 25.16 -1.3 29.6 61 -8 17.7
22:15 1023 30.21 852 25.16 -1.7 29 62 -8 17.6
22:20 1023 30.21 852 25.16 -2.4 27.7 64 -8.4 16.9
22:25 1023 30.21 852 25.16 -3.3 26.1 68 -8.4 16.8
22:30 1023 30.21 852 25.16 -2.9 26.8 65 -8.5 16.7
22:35 1023 30.21 852 25.16 -3.1 26.4 73 -7.3 18.8
22:40 1023 30.21 852 25.16 -2.8 27 69 -7.7 18.1
22:45 1023 30.21 852 25.16 -2.7 27.2 68 -7.8 17.9
22:50 1023 30.21 852 25.16 -2.4 27.6 67 -7.7 18.1
22:55 1023 30.21 852 25.16 -2.4 27.7 67 -7.7 18.2
23:00 1023 30.21 852 25.16 -2.5 27.5 67 -7.8 18
23:05 1023 30.21 852 25.16 -1.6 29 63 -7.8 17.9
23:10 1023 30.21 852 25.16 -1.5 29.3 63 -7.7 18.2
23:15 1023 30.21 852 25.16 -2 28.4 65 -7.7 18.2
23:20 1023 30.21 852 25.16 -1.9 28.6 65 -7.7 18.2
23:25 1023 30.21 852 25.16 -1.2 29.9 61 -7.7 18.1
23:30 1023 30.21 852 25.16 -1 30.2 61 -7.6 18.4
23:35 1023 30.21 852 25.16 -1.2 29.9 61 -7.7 18.1
23:40 1023 30.21 852 25.16 -1.2 29.9 62 -7.6 18.4
23:45 1023 30.21 852 25.16 -1.2 29.8 62 -7.7 18.2
23:50 1023 30.21 852 25.16 -1.4 29.5 63 -7.5 18.6
23:55 1023 30.21 852 25.16 -1.6 29 64 -7.5 18.5
24:00 1023 30.21 852 25.16 -2.2 28.1 67 -7.6 18.4